This is the latest recevied weather packets stored in our database for station/object K1FFK-1. If no packets are shown the sender has not sent any weather packets the latest 1 day(s).
| Time | Temp. | Humidity | Pressure | Rain* | Wind** | Luminosity | Snow |
|---|---|---|---|---|---|---|---|
| 1836274471 | 8.33° C | 80% | 1021.7 hPa | 0 mm | 1.79 m/s, 345° | - | - |
| 1836274321 | 7.78° C | 79% | 1021.7 hPa | 0 mm | 1.79 m/s, 347° | - | - |
| 1836273871 | 8.33° C | 81% | 1021.8 hPa | 0 mm | 1.34 m/s, 0° | - | - |
| 1778037694 | 13.33° C | 72% | 1014.3 hPa | 0 mm | 2.24 m/s, 187° | - | - |
| 1778037093 | 13.33° C | 72% | 1014.6 hPa | 0 mm | 1.79 m/s, 191° | - | - |
| 1778036493 | 13.33° C | 75% | 1014.5 hPa | 0 mm | 1.34 m/s, 199° | - | - |
| 1778035893 | 13.33° C | 76% | 1014.6 hPa | 0 mm | 2.24 m/s, 191° | - | - |
| 1778035294 | 13.33° C | 76% | 1014.7 hPa | 0 mm | 1.79 m/s, 194° | - | - |
| 1778034694 | 13.33° C | 75% | 1014.8 hPa | 0 mm | 1.34 m/s, 196° | - | - |
| 1778034094 | 13.33° C | 73% | 1014.9 hPa | 0 mm | 1.34 m/s, 191° | - | - |
| 1778033494 | 13.89° C | 73% | 1014.8 hPa | 0 mm | 1.79 m/s, 184° | - | - |
| 1778032893 | 13.89° C | 72% | 1014.8 hPa | 0 mm | 1.79 m/s, 198° | - | - |
| 1778032294 | 13.33° C | 75% | 1014.6 hPa | 0 mm | 2.24 m/s, 194° | - | - |
| 1778031693 | 12.78° C | 77% | 1014.6 hPa | 0 mm | 1.79 m/s, 192° | - | - |
| 1778031094 | 13.33° C | 82% | 1014.5 hPa | 0 mm | 1.79 m/s, 191° | - | - |
| 1778030494 | 13.89° C | 72% | 1014.4 hPa | 0 mm | 1.79 m/s, 196° | - | - |
| 1778029893 | 13.33° C | 73% | 1014.2 hPa | 0 mm | 2.24 m/s, 199° | - | - |
| 1778029295 | 12.78° C | 77% | 1014.2 hPa | 0 mm | 1.79 m/s, 192° | - | - |
| 1778028693 | 13.33° C | 79% | 1014.2 hPa | 0 mm | 1.79 m/s, 195° | - | - |
| 1778028094 | 13.33° C | 73% | 1014.1 hPa | 0 mm | 1.34 m/s, 196° | - | - |
| 1778027494 | 13.33° C | 73% | 1013.9 hPa | 0 mm | 1.34 m/s, 208° | - | - |
| 1778026895 | 12.78° C | 75% | 1013.7 hPa | 0 mm | 1.34 m/s, 196° | - | - |
| 1778026293 | 12.78° C | 78% | 1013.6 hPa | 0 mm | 1.34 m/s, 203° | - | - |
| 1778025694 | 12.22° C | 80% | 1013.7 hPa | 0 mm | 0.45 m/s, 258° | - | - |
| 1778025094 | 12.22° C | 83% | 1013.7 hPa | 0 mm | 1.34 m/s, 286° | - | - |
* Rain latest hour (hover to see other rain measurements)
** Current wind speed in m/s (hover to see current wind gust speed)